Terminal Aerodrome Forecast
Issued by NWS Lake Charles, LA

Home | Current Version | Previous Version | Text Only | Print | Product List | Glossary On
Versions: 1 2 3 4 5 6 7 8 9 10 11 12 13 14 15 16 17 18 19 20
000
FTUS44 KLCH 301720
TAFARA
TAF
KARA 301720Z 3018/0118 18010G18KT 2SM +TSRA BKN015 OVC025CB
      TEMPO 3018/3020 VRB25G45KT 1/2SM +TSRA OVC008CB
     FM302000 20010G18KT P6SM VCSH SCT025
     FM010000 19007KT P6SM BKN015 OVC025
      TEMPO 0108/0112 2SM BR BKN005
     FM011200 15012G20KT P6SM VCTS SCT015 OVC025CB PROB30 0112/0118
      VRB20G30KT 1SM +TSRA OVC008CB=

USA.gov is the U.S. government's official web portal to all federal, state and local government web resources and services.